Time;durP1;ratioP1;P1;durP2;ratioP2;P2;SDS_P1;SDS_P2;PMS_P1;PMS_P2;Temp;Humidity;BMP_temperature;BMP_pressure;BME280_temperature;BME280_humidity;BME280_pressure;Samples;Min_cycle;Max_cycle;Signal;HPM_P1;HPM_P2
2022/03/06 00:00:20;;;;;;;2.58;2.47;;;;;;;-0.83;62.82;101768.41;5995187;23;20019;-70
2022/03/06 00:02:46;;;;;;;3.83;3.53;;;;;;;-0.68;63.38;101808.97;6025357;23;20025;-71
2022/03/06 00:05:13;;;;;;;5.65;5.32;;;;;;;-1.12;63.32;101750.91;6017999;23;20882;-71
2022/03/06 00:07:40;;;;;;;3.95;3.65;;;;;;;-1.14;63.34;101742.28;5995111;23;20197;-70
2022/03/06 00:10:07;;;;;;;4.40;4.20;;;;;;;-1.14;63.56;101759.44;6024350;23;20515;-71
2022/03/06 00:12:38;;;;;;;2.50;2.40;;;;;;;-0.81;63.06;101815.69;5985668;23;20028;-70
2022/03/06 00:15:05;;;;;;;4.70;4.50;;;;;;;-1.17;63.85;101759.41;6024781;23;20056;-70
2022/03/06 00:17:32;;;;;;;2.70;2.60;;;;;;;-0.99;63.45;101793.13;5997978;23;20015;-69
2022/03/06 00:20:00;;;;;;;4.05;3.88;;;;;;;-1.03;64.08;101787.06;6013708;23;20337;-70
2022/03/06 00:22:27;;;;;;;3.58;3.40;;;;;;;-0.93;64.72;101808.66;6027940;23;20041;-70
2022/03/06 00:24:56;;;;;;;5.22;3.15;;;;;;;-1.15;64.53;101786.03;6019763;23;20039;-70
2022/03/06 00:27:22;;;;;;;2.67;2.58;;;;;;;-1.16;65.43;101794.59;6025074;23;20072;-70
2022/03/06 00:29:49;;;;;;;2.38;2.28;;;;;;;-1.12;65.19;101807.56;6000991;23;20094;-70
2022/03/06 00:32:15;;;;;;;2.50;2.40;;;;;;;-1.19;65.18;101823.75;6021364;23;20018;-70
2022/03/06 00:34:42;;;;;;;3.28;3.17;;;;;;;-1.70;65.30;101726.91;6003672;23;20090;-70
2022/03/06 00:37:09;;;;;;;4.38;4.18;;;;;;;-1.31;66.27;101795.25;6019477;23;20038;-70
2022/03/06 00:39:35;;;;;;;2.83;2.70;;;;;;;-1.90;66.30;101713.75;5996027;23;20098;-70
2022/03/06 00:42:02;;;;;;;4.05;3.88;;;;;;;-1.39;66.59;101804.59;6015241;23;20272;-69
2022/03/06 00:44:31;;;;;;;2.40;2.30;;;;;;;-1.85;66.89;101736.09;5987574;23;20023;-70
2022/03/06 00:46:58;;;;;;;3.58;3.47;;;;;;;-1.44;67.30;101812.25;6023558;23;20300;-71
2022/03/06 00:49:25;;;;;;;2.47;2.38;;;;;;;-1.54;67.84;101792.34;6018520;23;20029;-71
2022/03/06 00:51:52;;;;;;;2.88;2.78;;;;;;;-1.52;66.83;101821.56;5994647;23;20354;-71
2022/03/06 00:54:19;;;;;;;3.40;3.30;;;;;;;-2.10;66.67;101727.16;6023399;23;20023;-71
2022/03/06 00:56:46;;;;;;;2.50;2.40;;;;;;;-2.11;68.41;101740.84;5999749;23;20023;-68
2022/03/06 00:59:14;;;;;;;4.47;4.28;;;;;;;-2.10;68.35;101750.28;6025383;23;20101;-70
2022/03/06 01:01:41;;;;;;;3.65;3.45;;;;;;;-1.74;69.49;101810.91;5992591;23;20011;-69
2022/03/06 01:04:08;;;;;;;6.97;6.45;;;;;;;-2.11;70.36;101750.25;6014810;23;20047;-69
2022/03/06 01:06:35;;;;;;;2.95;2.85;;;;;;;-1.74;70.55;101810.91;5995451;23;20045;-69
2022/03/06 01:09:03;;;;;;;5.68;5.05;;;;;;;-1.73;70.37;101819.50;6017991;23;20081;-69
2022/03/06 01:11:30;;;;;;;2.50;2.40;;;;;;;-1.98;70.01;101784.75;5982958;23;20170;-69
2022/03/06 01:13:57;;;;;;;2.28;2.17;;;;;;;-1.86;70.38;101821.88;6021701;23;20023;-71
2022/03/06 01:16:23;;;;;;;2.53;2.42;;;;;;;-1.93;70.45;101820.03;6026143;23;20035;-69
2022/03/06 01:18:49;;;;;;;2.70;2.60;;;;;;;-2.20;71.00;101792.13;5996012;23;20035;-68
2022/03/06 01:21:16;;;;;;;2.53;2.42;;;;;;;-2.02;71.57;101825.03;6019077;23;20554;-69
2022/03/06 01:23:42;;;;;;;2.65;2.55;;;;;;;-2.63;71.63;101738.22;6011584;23;20338;-69
2022/03/06 01:26:09;;;;;;;4.45;4.25;;;;;;;-2.68;72.39;101737.25;5989819;23;20043;-69
2022/03/06 01:28:35;;;;;;;3.85;3.65;;;;;;;-2.73;71.68;101732.88;6027547;23;20026;-69
2022/03/06 01:31:02;;;;;;;4.25;4.05;;;;;;;-2.64;71.92;101740.78;6022037;23;20014;-69
2022/03/06 01:33:28;;;;;;;2.67;2.40;;;;;;;-2.17;72.69;101830.75;5993628;23;20083;-69
2022/03/06 01:35:55;;;;;;;4.72;4.35;;;;;;;-2.16;71.78;101836.78;6024302;23;20554;-70
2022/03/06 01:38:21;;;;;;;2.30;2.20;;;;;;;-2.24;72.38;101818.63;5992930;23;20046;-70
2022/03/06 01:40:47;;;;;;;2.85;2.75;;;;;;;-2.18;72.45;101841.03;6017565;23;20033;-70
2022/03/06 01:43:14;;;;;;;4.25;4.05;;;;;;;-2.21;72.17;101840.09;5968741;23;20377;-69
2022/03/06 01:45:40;;;;;;;3.40;3.20;;;;;;;-2.21;73.64;101845.22;5999526;23;20010;-70
2022/03/06 01:48:10;;;;;;;4.68;4.45;;;;;;;-2.67;74.77;101744.13;5952581;23;20051;-70
2022/03/06 01:50:38;;;;;;;2.30;2.20;;;;;;;-3.42;75.02;101650.22;6015428;23;20007;-69
2022/03/06 01:53:12;;;;;;;4.50;4.30;;;;;;;-2.51;75.45;101782.97;5985846;23;20024;-69
2022/03/06 01:55:39;;;;;;;2.70;2.60;;;;;;;-2.12;74.48;101848.84;5995055;23;20278;-69
2022/03/06 01:58:08;;;;;;;3.92;3.78;;;;;;;-2.56;74.10;101789.75;5997356;23;20023;-69
2022/03/06 02:00:48;;;;;;;2.35;2.25;;;;;;;-2.43;74.60;101817.41;6025441;23;20038;-69
2022/03/06 02:03:18;;;;;;;3.67;3.53;;;;;;;-2.42;74.36;101830.28;5985446;23;20057;-69
2022/03/06 02:05:46;;;;;;;2.60;2.40;;;;;;;-2.95;74.17;101750.41;6027271;23;20015;-69
2022/03/06 02:08:12;;;;;;;3.97;3.80;;;;;;;-2.40;74.81;101848.31;5988921;23;20019;-71
2022/03/06 02:10:39;;;;;;;2.15;2.05;;;;;;;-2.86;75.43;101776.31;6026493;23;20094;-69
2022/03/06 02:13:06;;;;;;;4.68;4.47;;;;;;;-2.39;75.97;101849.16;5989493;23;20041;-69
2022/03/06 02:15:33;;;;;;;4.50;2.95;;;;;;;-2.39;74.31;101852.59;5990953;23;20086;-69
2022/03/06 02:18:00;;;;;;;4.63;4.25;;;;;;;-2.50;74.92;101839.56;5968534;23;20042;-69
2022/03/06 02:20:27;;;;;;;2.60;2.50;;;;;;;-2.84;74.68;101797.75;6024665;23;20382;-69
2022/03/06 02:22:59;;;;;;;2.58;2.47;;;;;;;-2.51;75.17;101893.47;6001927;23;20047;-69
2022/03/06 02:25:28;;;;;;;2.17;2.08;;;;;;;-2.54;75.39;101849.75;6033995;23;20046;-70
2022/03/06 02:27:58;;;;;;;2.20;2.10;;;;;;;-2.55;74.39;101858.28;5995812;23;20383;-70
2022/03/06 02:30:26;;;;;;;2.30;2.20;;;;;;;-2.76;74.95;101822.75;6026239;23;20430;-70
2022/03/06 02:32:54;;;;;;;2.28;2.17;;;;;;;-2.59;76.33;101849.63;6000925;23;20381;-69
2022/03/06 02:35:21;;;;;;;2.40;2.30;;;;;;;-2.72;76.17;101843.38;6027063;23;20354;-69
2022/03/06 02:37:47;;;;;;;2.60;2.50;;;;;;;-3.16;75.83;101768.84;6001269;23;20373;-69
2022/03/06 02:40:16;;;;;;;2.75;2.65;;;;;;;-3.05;76.49;101789.59;6036204;23;20032;-69
2022/03/06 02:42:44;;;;;;;2.20;2.10;;;;;;;-2.95;76.18;101806.94;5993641;23;20114;-69
2022/03/06 02:45:23;;;;;;;5.25;4.95;;;;;;;-3.02;75.66;101789.66;6020410;23;20082;-69
2022/03/06 02:47:51;;;;;;;2.65;2.50;;;;;;;-2.73;76.25;101845.91;5995055;23;20388;-69
2022/03/06 02:50:20;;;;;;;2.55;2.45;;;;;;;-3.01;76.48;101801.66;6018429;23;20019;-69
2022/03/06 02:52:46;;;;;;;2.50;2.40;;;;;;;-2.76;77.01;101839.03;6002054;23;20453;-69
2022/03/06 02:55:14;;;;;;;4.15;3.90;;;;;;;-2.79;76.42;101840.66;6022714;23;20082;-69
2022/03/06 02:57:42;;;;;;;2.00;1.90;;;;;;;-2.80;76.63;101837.22;6006467;23;20046;-69
2022/03/06 03:00:12;;;;;;;3.92;3.75;;;;;;;-2.95;76.33;101824.91;6022529;23;20034;-70
2022/03/06 03:02:40;;;;;;;2.65;2.55;;;;;;;-2.77;76.67;101841.53;5997775;23;20039;-69
2022/03/06 03:05:08;;;;;;;4.25;4.05;;;;;;;-3.19;76.93;101768.75;6037319;23;20368;-70
2022/03/06 03:07:37;;;;;;;2.10;2.00;;;;;;;-3.12;77.22;101791.16;5997058;23;20121;-69
2022/03/06 03:10:05;;;;;;;3.90;3.75;;;;;;;-3.12;77.26;101772.34;6024155;23;20034;-69
2022/03/06 03:12:31;;;;;;;2.28;2.17;;;;;;;-2.82;76.44;101820.91;6001500;23;20483;-67
2022/03/06 03:14:58;;;;;;;3.42;3.25;;;;;;;-2.70;76.50;101840.84;6025524;23;20443;-69
2022/03/06 03:17:24;;;;;;;2.95;2.75;;;;;;;-2.73;77.60;101845.91;5982161;23;20127;-70
2022/03/06 03:19:50;;;;;;;2.33;2.22;;;;;;;-2.76;76.35;101844.16;6023800;23;20027;-69
2022/03/06 03:22:17;;;;;;;2.63;2.53;;;;;;;-2.80;77.00;101852.63;5988989;23;20016;-69
2022/03/06 03:24:43;;;;;;;2.85;2.65;;;;;;;-2.82;77.15;101855.16;6030536;23;20023;-69
2022/03/06 03:27:10;;;;;;;4.05;3.88;;;;;;;-2.87;78.11;101856.75;5997968;23;20227;-69
2022/03/06 03:29:36;;;;;;;2.30;2.20;;;;;;;-3.09;77.64;101819.47;6031262;23;20397;-69
2022/03/06 03:32:03;;;;;;;3.20;3.10;;;;;;;-3.13;77.85;101820.22;5999325;23;20086;-68
2022/03/06 03:34:30;;;;;;;3.45;3.25;;;;;;;-2.95;77.08;101860.00;6024856;23;20466;-70
2022/03/06 03:36:56;;;;;;;2.45;2.35;;;;;;;-2.98;77.63;101860.81;5993548;23;20082;-69
2022/03/06 03:39:23;;;;;;;2.33;2.22;;;;;;;-3.22;77.64;101823.47;6018398;23;20015;-69
2022/03/06 03:41:49;;;;;;;2.03;1.92;;;;;;;-4.11;78.46;101675.22;6000592;23;20069;-69
2022/03/06 03:44:16;;;;;;;2.10;2.00;;;;;;;-3.36;78.72;101793.19;6017824;23;20433;-69
2022/03/06 03:46:42;;;;;;;2.40;2.30;;;;;;;-3.08;78.65;101838.31;5999233;23;20091;-70
2022/03/06 03:49:09;;;;;;;3.88;3.72;;;;;;;-3.47;78.81;101785.25;6016061;23;20102;-70
2022/03/06 03:51:36;;;;;;;2.20;2.10;;;;;;;-3.30;79.11;101812.16;5996653;23;20527;-69
2022/03/06 03:54:03;;;;;;;6.03;5.72;;;;;;;-2.91;79.60;101875.50;6024613;23;20293;-68
2022/03/06 03:56:29;;;;;;;2.10;2.00;;;;;;;-2.88;79.42;101879.88;6002373;23;20018;-69
2022/03/06 03:58:56;;;;;;;3.40;3.13;;;;;;;-4.08;79.16;101672.69;6026760;23;20029;-69
2022/03/06 04:01:22;;;;;;;2.20;2.10;;;;;;;-2.81;79.84;101872.31;5999716;23;21451;-70
2022/03/06 04:03:49;;;;;;;2.30;2.20;;;;;;;-2.74;79.16;101883.59;6022531;23;20018;-69
2022/03/06 04:06:15;;;;;;;2.78;2.67;;;;;;;-3.10;79.32;101804.91;5994993;23;20023;-71
2022/03/06 04:08:42;;;;;;;3.30;3.10;;;;;;;-2.66;79.00;101873.47;5999378;23;20226;-70
2022/03/06 04:11:09;;;;;;;4.60;4.38;;;;;;;-2.78;80.24;101844.97;5987362;23;20480;-69
2022/03/06 04:13:35;;;;;;;2.10;2.00;;;;;;;-3.15;79.49;101774.81;6017276;23;20022;-70
2022/03/06 04:16:03;;;;;;;3.20;3.10;;;;;;;-2.53;80.17;101872.88;6002335;23;20058;-69
2022/03/06 04:18:29;;;;;;;2.17;2.08;;;;;;;-3.59;79.83;101690.03;6020137;23;20493;-70
2022/03/06 04:20:55;;;;;;;2.08;1.98;;;;;;;-3.30;79.30;101735.16;5992897;23;20030;-69
2022/03/06 04:23:22;;;;;;;2.20;2.10;;;;;;;-2.64;79.70;101835.84;6024760;23;20261;-70
2022/03/06 04:25:48;;;;;;;2.03;1.92;;;;;;;-2.61;80.61;101844.47;6006460;23;20102;-70
2022/03/06 04:28:15;;;;;;;2.05;1.95;;;;;;;-2.40;79.74;101884.31;6021994;23;20042;-69
2022/03/06 04:30:41;;;;;;;2.20;2.10;;;;;;;-2.75;79.78;101827.88;6000934;23;20015;-69
2022/03/06 04:33:08;;;;;;;4.10;3.90;;;;;;;-2.74;79.35;101819.38;5999457;23;20023;-69
2022/03/06 04:35:34;;;;;;;2.25;2.15;;;;;;;-2.28;80.36;101891.41;5998880;23;20271;-69
2022/03/06 04:38:01;;;;;;;4.15;3.95;;;;;;;-2.35;79.46;101877.53;6026143;23;20030;-68
2022/03/06 04:40:27;;;;;;;2.03;1.92;;;;;;;-2.56;80.24;101841.13;5988784;23;20015;-69
2022/03/06 04:42:53;;;;;;;2.10;2.00;;;;;;;-2.25;79.16;101907.72;5997086;23;20015;-69
2022/03/06 04:45:20;;;;;;;2.30;2.20;;;;;;;-2.52;79.17;101855.78;6027251;23;20023;-70
2022/03/06 04:47:47;;;;;;;2.58;2.47;;;;;;;-2.19;80.19;101894.13;5997004;23;20074;-69
2022/03/06 04:50:13;;;;;;;3.30;3.20;;;;;;;-2.56;79.09;101836.00;6019661;23;20512;-70
2022/03/06 04:52:39;;;;;;;2.70;2.60;;;;;;;-2.18;79.04;101901.03;6011090;23;20010;-69
2022/03/06 04:55:06;;;;;;;4.57;4.38;;;;;;;-2.24;78.96;101894.06;6027896;23;20368;-69
2022/03/06 04:57:33;;;;;;;2.10;2.00;;;;;;;-2.24;78.07;101898.34;6004982;23;20370;-69
2022/03/06 04:59:59;;;;;;;2.88;2.78;;;;;;;-2.19;78.76;101904.41;6025157;23;20533;-69
2022/03/06 05:02:26;;;;;;;2.30;2.20;;;;;;;-2.47;79.70;101857.59;5989741;23;20019;-70
2022/03/06 05:04:52;;;;;;;2.28;2.17;;;;;;;-2.57;78.81;101845.38;6030171;23;20313;-69
2022/03/06 05:07:19;;;;;;;2.17;2.08;;;;;;;-2.83;79.13;101814.03;5997547;23;20428;-69
2022/03/06 05:09:48;;;;;;;2.40;2.30;;;;;;;-2.37;79.38;101886.06;6031531;23;20357;-69
2022/03/06 05:12:15;;;;;;;5.18;4.82;;;;;;;-2.53;79.21;101854.91;5995016;23;20019;-69
2022/03/06 05:14:41;;;;;;;2.10;2.00;;;;;;;-2.19;78.79;101901.84;6020773;23;20038;-68
2022/03/06 05:17:08;;;;;;;5.30;5.10;;;;;;;-2.56;79.94;101846.28;6013878;23;20031;-69
2022/03/06 05:19:34;;;;;;;2.00;1.90;;;;;;;-2.22;79.96;101909.53;6026258;23;20149;-69
2022/03/06 05:22:00;;;;;;;3.80;3.65;;;;;;;-2.37;80.28;101881.78;5999457;23;20026;-69
2022/03/06 05:24:28;;;;;;;2.20;2.10;;;;;;;-2.50;79.99;101867.81;6032988;23;20042;-69
2022/03/06 05:26:54;;;;;;;3.20;2.95;;;;;;;-2.28;81.19;101899.13;6004148;23;20090;-70
2022/03/06 05:29:20;;;;;;;2.72;2.63;;;;;;;-2.29;80.99;101905.94;6019761;23;20015;-70
2022/03/06 05:31:48;;;;;;;2.22;2.13;;;;;;;-2.31;81.10;101899.03;6003899;23;20343;-70
2022/03/06 05:34:14;;;;;;;3.63;3.42;;;;;;;-2.34;81.06;101899.00;6019983;23;20507;-70
2022/03/06 05:36:40;;;;;;;2.53;2.33;;;;;;;-2.74;81.01;101857.91;6000583;23;20031;-70
2022/03/06 05:39:07;;;;;;;3.55;3.45;;;;;;;-2.47;81.37;101915.84;6018379;23;20531;-69
2022/03/06 05:41:33;;;;;;;3.55;3.35;;;;;;;-2.93;81.48;101830.06;6000497;23;20450;-69
2022/03/06 05:44:00;;;;;;;2.90;2.80;;;;;;;-2.69;81.18;101881.13;6027019;23;20120;-69
2022/03/06 05:46:26;;;;;;;1.90;1.80;;;;;;;-2.57;80.82;101919.91;5994133;23;20027;-70
2022/03/06 05:48:53;;;;;;;2.15;2.05;;;;;;;-2.66;81.51;101917.16;6022988;23;20043;-69
2022/03/06 05:51:19;;;;;;;2.30;2.20;;;;;;;-2.74;81.57;101919.56;5993895;23;20811;-69
2022/03/06 05:53:46;;;;;;;2.30;2.20;;;;;;;-2.78;81.20;101929.75;6031332;23;20240;-69
2022/03/06 05:56:13;;;;;;;3.67;3.55;;;;;;;-2.84;81.13;101923.63;5999996;23;20058;-69
2022/03/06 05:58:39;;;;;;;2.20;2.10;;;;;;;-3.04;81.37;101899.19;6023753;23;20023;-69
2022/03/06 06:01:06;;;;;;;4.65;4.28;;;;;;;-3.35;81.71;101872.78;5999127;23;20041;-69
2022/03/06 06:03:32;;;;;;;3.53;3.33;;;;;;;-2.92;81.73;101935.44;6018604;23;20089;-69
2022/03/06 06:05:59;;;;;;;3.80;3.60;;;;;;;-2.98;82.50;101945.56;5998145;23;20030;-69
2022/03/06 06:08:25;;;;;;;2.00;1.90;;;;;;;-3.02;81.92;101956.59;6031344;23;20011;-69
2022/03/06 06:10:51;;;;;;;2.10;2.00;;;;;;;-3.15;82.73;101934.88;6005155;23;20094;-69
2022/03/06 06:13:19;;;;;;;2.22;2.13;;;;;;;-3.95;83.70;101786.66;6022917;23;20014;-69
2022/03/06 06:15:45;;;;;;;2.33;2.22;;;;;;;-3.76;83.92;101826.47;6022088;23;20173;-69
2022/03/06 06:18:12;;;;;;;7.93;7.10;;;;;;;-3.21;83.93;101927.91;6041584;23;20392;-71
2022/03/06 06:20:40;;;;;;;1.70;1.70;;;;;;;-4.77;84.50;101683.81;6007934;23;20385;-71
2022/03/06 06:23:06;;;;;;;3.70;3.58;;;;;;;-3.67;83.56;101872.88;6029269;23;20025;-70
2022/03/06 06:25:32;;;;;;;2.58;2.47;;;;;;;-3.05;84.88;101969.34;6008498;23;20517;-71
2022/03/06 06:27:59;;;;;;;3.58;3.47;;;;;;;-3.66;84.27;101882.31;6028280;23;20481;-72
2022/03/06 06:30:26;;;;;;;5.30;3.47;;;;;;;-2.98;84.07;101978.09;6001768;23;20030;-71
2022/03/06 06:32:52;;;;;;;2.20;2.10;;;;;;;-3.08;83.79;101953.88;6030866;23;20343;-71
2022/03/06 06:35:18;;;;;;;2.00;1.90;;;;;;;-3.53;84.04;101865.50;5990254;23;20043;-70
2022/03/06 06:37:45;;;;;;;4.82;3.20;;;;;;;-3.41;82.88;101883.78;6028022;23;20025;-71
2022/03/06 06:40:11;;;;;;;4.18;3.97;;;;;;;-3.24;83.38;101909.84;6002219;23;20037;-70
2022/03/06 06:42:38;;;;;;;2.00;1.90;;;;;;;-2.83;83.52;101978.44;6029641;23;20343;-71
2022/03/06 06:45:05;;;;;;;4.63;4.43;;;;;;;-3.46;83.78;101885.38;5997799;23;20375;-71
2022/03/06 06:47:31;;;;;;;2.58;2.47;;;;;;;-3.07;83.90;101935.91;6021061;23;20071;-69
2022/03/06 06:49:58;;;;;;;3.15;2.95;;;;;;;-2.73;82.55;101988.09;5994154;23;20039;-71
2022/03/06 06:52:24;;;;;;;2.40;2.30;;;;;;;-3.00;82.97;101947.22;6039071;23;20091;-70
2022/03/06 06:54:50;;;;;;;2.50;2.40;;;;;;;-2.72;83.37;102023.25;5999492;23;20321;-70
2022/03/06 06:57:17;;;;;;;2.22;2.13;;;;;;;-2.68;83.40;102001.06;6026565;23;21316;-70
2022/03/06 06:59:43;;;;;;;2.45;2.35;;;;;;;-3.12;82.75;101918.69;5976953;23;20550;-71
2022/03/06 07:02:10;;;;;;;4.15;3.95;;;;;;;-2.63;83.52;102010.63;6026428;23;20105;-72
2022/03/06 07:04:36;;;;;;;2.10;2.00;;;;;;;-2.67;84.97;102018.19;6004772;23;20055;-71
2022/03/06 07:07:03;;;;;;;3.83;3.65;;;;;;;-2.63;83.93;102012.28;6025255;23;20466;-71
2022/03/06 07:09:30;;;;;;;2.30;2.20;;;;;;;-2.72;84.56;101974.41;6001984;23;20093;-70
2022/03/06 07:11:56;;;;;;;3.00;2.88;;;;;;;-2.62;83.25;101976.38;6025225;23;20015;-71
2022/03/06 07:14:23;;;;;;;2.75;2.65;;;;;;;-2.38;83.06;101993.16;5991820;23;20021;-71
2022/03/06 07:16:49;;;;;;;2.47;2.38;;;;;;;-1.94;83.06;102041.25;6023216;23;20798;-70
2022/03/06 07:19:17;;;;;;;4.78;4.57;;;;;;;-2.47;82.36;101924.41;5987831;23;20023;-72
2022/03/06 07:21:44;;;;;;;2.20;2.10;;;;;;;-1.99;81.84;101963.97;6025280;23;20031;-71
2022/03/06 07:24:10;;;;;;;3.47;3.38;;;;;;;-1.66;81.28;102004.09;6029461;23;20014;-73
2022/03/06 07:26:37;;;;;;;2.30;2.20;;;;;;;-1.48;80.24;101999.28;6022116;23;20500;-71
2022/03/06 07:29:04;;;;;;;4.57;4.38;;;;;;;-1.83;79.35;101932.53;5993408;23;20104;-73
2022/03/06 07:31:30;;;;;;;2.70;2.60;;;;;;;-1.15;80.18;102028.16;6030436;23;20058;-73
2022/03/06 07:33:57;;;;;;;2.58;2.47;;;;;;;-1.21;79.68;102005.75;5994278;23;20027;-73
2022/03/06 07:36:23;;;;;;;2.50;2.40;;;;;;;-0.99;78.29;102031.88;6021030;23;20015;-72
2022/03/06 07:38:50;;;;;;;2.78;2.67;;;;;;;-1.27;77.95;102009.06;5996511;23;20496;-72
2022/03/06 07:41:17;;;;;;;2.83;2.72;;;;;;;-1.06;79.38;102034.34;6029115;23;20034;-70
2022/03/06 07:43:44;;;;;;;2.55;2.45;;;;;;;-0.99;79.07;102024.16;5995993;23;20019;-71
2022/03/06 07:46:11;;;;;;;4.47;4.28;;;;;;;-1.02;79.43;102037.84;6022681;23;20046;-70
2022/03/06 07:48:37;;;;;;;2.50;2.40;;;;;;;-1.18;78.75;101987.78;5999258;23;20087;-70
2022/03/06 07:51:04;;;;;;;4.22;4.03;;;;;;;-1.10;79.01;101956.97;6025688;23;20488;-70
2022/03/06 07:53:30;;;;;;;2.50;2.40;;;;;;;-0.44;78.95;102032.75;6020409;23;20066;-70
2022/03/06 07:55:57;;;;;;;2.53;2.42;;;;;;;-0.67;78.83;101998.88;6026079;23;20796;-69
2022/03/06 07:58:23;;;;;;;2.50;2.40;;;;;;;-0.35;77.86;102032.88;5997775;23;20071;-70
2022/03/06 08:00:50;;;;;;;3.83;3.63;;;;;;;-0.05;77.57;102045.34;6025457;23;20419;-70
2022/03/06 08:03:16;;;;;;;3.15;3.05;;;;;;;-0.26;77.38;101991.75;5995301;23;20019;-70
2022/03/06 08:05:44;;;;;;;2.47;2.38;;;;;;;-0.07;76.99;102005.75;6003396;23;20416;-70
2022/03/06 08:08:11;;;;;;;2.75;2.65;;;;;;;0.05;77.26;102005.03;5991546;23;20011;-70
2022/03/06 08:10:38;;;;;;;2.67;2.58;;;;;;;0.11;76.54;102001.66;6014612;23;20034;-70
2022/03/06 08:13:04;;;;;;;4.95;4.75;;;;;;;0.42;77.36;102059.69;5992043;23;20622;-70
2022/03/06 08:15:30;;;;;;;2.70;2.60;;;;;;;0.51;77.51;102046.03;6027894;23;20049;-72
2022/03/06 08:17:57;;;;;;;2.97;2.85;;;;;;;0.75;77.22;102051.44;5992425;23;20109;-72
2022/03/06 08:20:24;;;;;;;4.00;3.80;;;;;;;0.92;76.73;102033.53;6021959;23;20007;-71
2022/03/06 08:22:50;;;;;;;2.70;2.60;;;;;;;0.92;75.58;102014.56;5992967;23;20448;-71
2022/03/06 08:25:19;;;;;;;3.05;2.95;;;;;;;0.96;74.14;102022.38;6031159;23;20026;-71
2022/03/06 08:27:46;;;;;;;5.15;2.92;;;;;;;1.28;73.60;102052.78;5997019;23;20098;-71
2022/03/06 08:30:13;;;;;;;4.35;4.15;;;;;;;1.01;73.27;101973.28;6012949;23;20065;-70
2022/03/06 08:32:41;;;;;;;2.95;2.85;;;;;;;1.58;72.55;102023.69;5995900;23;20102;-71
2022/03/06 08:35:08;;;;;;;4.05;3.85;;;;;;;1.46;71.54;101951.16;6018009;23;20022;-71
2022/03/06 08:37:34;;;;;;;2.83;2.72;;;;;;;2.12;67.96;102056.75;5994586;23;20099;-73
2022/03/06 08:40:01;;;;;;;4.07;3.88;;;;;;;1.23;66.27;101906.22;6024123;23;20034;-73
2022/03/06 08:42:29;;;;;;;2.80;2.70;;;;;;;0.98;65.80;101807.81;6000370;23;20015;-71
2022/03/06 08:44:56;;;;;;;4.35;4.05;;;;;;;2.78;65.87;102055.25;6014193;23;20027;-72
2022/03/06 08:47:22;;;;;;;2.70;2.60;;;;;;;3.14;64.81;102056.16;5980661;23;20051;-71
2022/03/06 08:49:49;;;;;;;2.80;2.70;;;;;;;3.44;64.11;102049.25;6010804;23;20041;-72
2022/03/06 08:52:15;;;;;;;3.70;3.50;;;;;;;3.57;62.86;102024.16;5976726;23;20102;-72
2022/03/06 08:54:42;;;;;;;3.10;3.00;;;;;;;4.16;62.58;102061.22;6028977;23;20054;-74
2022/03/06 08:57:09;;;;;;;4.93;4.65;;;;;;;3.76;59.01;102009.38;5991241;23;20113;-74
2022/03/06 08:59:35;;;;;;;3.38;3.17;;;;;;;3.38;61.56;101993.00;6026087;23;20082;-74
2022/03/06 09:02:02;;;;;;;4.75;4.55;;;;;;;3.52;63.61;102065.66;6014802;23;20023;-71
2022/03/06 09:04:30;;;;;;;3.15;3.05;;;;;;;3.53;65.91;102069.16;6005070;23;20305;-73
2022/03/06 09:06:56;;;;;;;3.85;3.55;;;;;;;3.54;66.52;102065.66;5966535;23;20025;-74
2022/03/06 09:09:23;;;;;;;3.20;3.10;;;;;;;3.02;67.81;102047.53;6026701;23;20094;-72
2022/03/06 09:11:49;;;;;;;2.90;2.80;;;;;;;3.06;67.45;102029.34;5993269;23;20054;-73
2022/03/06 09:14:16;;;;;;;3.60;3.50;;;;;;;2.58;68.61;102054.34;6014074;23;21167;-72
2022/03/06 09:16:42;;;;;;;3.35;3.25;;;;;;;2.91;68.50;102016.41;5999398;23;20513;-71
2022/03/06 09:19:09;;;;;;;5.15;4.85;;;;;;;2.17;67.47;101878.97;6018383;23;20023;-72
2022/03/06 09:21:35;;;;;;;2.80;2.70;;;;;;;1.89;67.80;101891.00;5994722;23;20015;-71
2022/03/06 09:24:02;;;;;;;4.13;3.92;;;;;;;2.90;68.03;102067.38;6020884;23;20069;-71
2022/03/06 09:26:28;;;;;;;3.67;3.47;;;;;;;2.82;67.91;102074.28;5996115;23;20058;-72
2022/03/06 09:28:55;;;;;;;3.10;3.00;;;;;;;2.65;67.57;102024.16;6029456;23;20357;-73
2022/03/06 09:31:22;;;;;;;3.25;3.15;;;;;;;3.08;66.94;102076.06;6002725;23;20160;-71
2022/03/06 09:33:48;;;;;;;2.92;2.83;;;;;;;3.45;66.29;102053.59;6029576;23;20539;-72
2022/03/06 09:36:36;;;;;;;3.00;2.90;;;;;;;3.15;65.13;102005.16;6025548;23;20162;-71
2022/03/06 09:39:04;;;;;;;5.57;5.30;;;;;;;3.90;65.20;102082.91;6024571;23;20075;-72
2022/03/06 09:41:31;;;;;;;3.20;3.10;;;;;;;4.10;63.63;102082.00;6001862;23;20042;-72
2022/03/06 09:43:58;;;;;;;3.55;3.40;;;;;;;4.01;61.27;102090.72;6027471;23;20051;-72
2022/03/06 09:46:24;;;;;;;3.10;3.00;;;;;;;4.10;60.65;102077.66;6000104;23;20031;-72
2022/03/06 09:48:51;;;;;;;3.25;3.05;;;;;;;3.84;61.19;102017.16;6033971;23;20039;-72
2022/03/06 09:51:19;;;;;;;3.40;3.30;;;;;;;4.46;60.53;102078.41;5997363;23;20061;-71
2022/03/06 09:53:46;;;;;;;3.33;3.22;;;;;;;4.24;57.86;102063.78;6009784;23;20077;-72
2022/03/06 09:56:12;;;;;;;4.28;4.07;;;;;;;3.74;58.08;102000.75;5998348;23;20033;-71
2022/03/06 09:58:39;;;;;;;3.28;3.17;;;;;;;4.30;58.58;102082.81;6008588;23;20105;-71
2022/03/06 10:01:05;;;;;;;4.60;4.40;;;;;;;4.55;58.41;102074.88;6000289;23;20094;-71
2022/03/06 10:03:35;;;;;;;3.42;3.33;;;;;;;4.29;59.75;102054.22;6026709;23;20094;-72
2022/03/06 10:06:07;;;;;;;8.02;5.07;;;;;;;4.51;58.98;102068.88;6006194;23;20520;-71
2022/03/06 10:08:34;;;;;;;3.38;3.28;;;;;;;4.22;58.13;102016.16;6028975;23;20029;-72
2022/03/06 10:11:12;;;;;;;5.00;4.80;;;;;;;4.55;57.26;102077.47;6001565;23;20055;-72
2022/03/06 10:13:44;;;;;;;3.45;3.30;;;;;;;4.14;57.39;101985.84;6023245;23;20094;-72
2022/03/06 10:16:17;;;;;;;5.75;5.35;;;;;;;4.93;57.31;102072.09;5986004;23;20448;-73
2022/03/06 10:18:49;;;;;;;3.17;3.08;;;;;;;4.92;57.03;102085.94;6031396;23;20074;-75
2022/03/06 10:21:19;;;;;;;3.30;3.20;;;;;;;4.94;56.60;102080.75;5994797;23;20435;-73
2022/03/06 10:23:54;;;;;;;3.40;3.30;;;;;;;5.07;56.93;102085.00;6034127;23;20287;-72
2022/03/06 10:26:26;;;;;;;3.00;2.90;;;;;;;4.91;56.63;102044.34;6008558;23;20040;-72
2022/03/06 10:28:57;;;;;;;4.13;3.92;;;;;;;5.60;55.28;102086.28;6031419;23;20038;-71
2022/03/06 10:31:26;;;;;;;3.50;3.40;;;;;;;5.44;54.27;102079.50;6001409;23;20023;-72
2022/03/06 10:33:59;;;;;;;3.88;3.67;;;;;;;5.78;53.74;102089.63;5991603;23;20562;-72
2022/03/06 10:36:29;;;;;;;;;;;;;;;6.06;53.37;102087.63;5961764;23;20015;-72
2022/03/06 10:38:55;;;;;;;3.17;3.08;;;;;;;6.29;52.67;102081.25;5992630;23;20234;-72
2022/03/06 10:41:22;;;;;;;3.00;2.90;;;;;;;6.46;51.65;102086.28;5987581;23;20040;-71
2022/03/06 10:43:49;;;;;;;3.20;3.10;;;;;;;6.16;51.39;102083.16;6010365;23;20102;-72
2022/03/06 10:46:18;;;;;;;3.70;3.50;;;;;;;6.21;51.51;102088.31;5996794;23;20035;-72
2022/03/06 10:48:53;;;;;;;3.30;3.20;;;;;;;5.77;53.13;102077.44;5985457;23;20087;-71
2022/03/06 10:51:20;;;;;;;3.65;3.55;;;;;;;5.44;52.87;101990.97;6025087;23;20276;-72
2022/03/06 10:53:54;;;;;;;4.97;4.68;;;;;;;6.04;51.69;102073.75;5986593;23;20401;-72
2022/03/06 10:56:21;;;;;;;3.40;3.30;;;;;;;5.75;51.47;102071.38;6017402;23;20031;-72
2022/03/06 10:58:48;;;;;;;3.50;3.40;;;;;;;5.77;52.64;102070.53;5988723;23;20067;-71
2022/03/06 11:01:30;;;;;;;3.75;3.55;;;;;;;5.47;53.24;102037.84;5996299;23;20019;-72
2022/03/06 11:03:59;;;;;;;4.43;4.22;;;;;;;6.03;51.98;102073.75;5953742;24;20386;-72
2022/03/06 11:06:27;;;;;;;3.30;3.20;;;;;;;4.75;53.36;101897.94;6011560;23;20015;-72
2022/03/06 11:08:54;;;;;;;3.60;3.40;;;;;;;6.17;52.06;102069.22;6005356;23;20027;-73
2022/03/06 11:11:21;;;;;;;4.05;3.85;;;;;;;5.88;50.47;101983.56;6009491;23;20027;-73
2022/03/06 11:13:48;;;;;;;3.35;3.25;;;;;;;5.93;50.98;101992.16;5976986;23;20022;-73
2022/03/06 11:16:15;;;;;;;5.70;4.85;;;;;;;6.66;47.99;102066.00;6002876;23;20046;-73
2022/03/06 11:18:43;;;;;;;3.22;3.13;;;;;;;6.89;48.20;102062.19;5987026;23;20025;-73
2022/03/06 11:21:10;;;;;;;5.43;5.13;;;;;;;6.40;47.71;101975.09;5999335;23;20039;-73
2022/03/06 11:23:40;;;;;;;3.60;3.50;;;;;;;6.41;48.28;102052.41;5989956;23;20019;-73
2022/03/06 11:26:10;;;;;;;6.68;6.35;;;;;;;6.68;48.36;102047.72;5998537;23;20011;-72